createdAt,value
2022-09-28T00:01:59.013Z,97238.53
2022-09-28T00:04:27.370Z,97239.59
2022-09-28T00:06:56.487Z,97245.19
2022-09-28T00:09:24.901Z,97239.41
2022-09-28T00:11:53.963Z,97235.81
2022-09-28T00:14:22.859Z,97227.63
2022-09-28T00:16:52.695Z,97226.34
2022-09-28T00:19:22.817Z,97238.72
2022-09-28T00:21:51.059Z,97239.69
2022-09-28T00:24:24.075Z,97227.75
2022-09-28T00:26:56.688Z,97231.56
2022-09-28T00:29:27.388Z,97229.41
2022-09-28T00:32:00.224Z,97219.00
2022-09-28T00:34:32.177Z,97215.41
2022-09-28T00:37:01.090Z,97213.47
2022-09-28T00:39:31.800Z,97217.94
2022-09-28T00:42:00.838Z,97212.66
2022-09-28T00:44:45.100Z,97203.59
2022-09-28T00:47:37.458Z,97204.47
2022-09-28T00:50:12.300Z,97197.91
2022-09-28T00:52:44.056Z,97203.88
2022-09-28T00:55:17.734Z,97195.13
2022-09-28T00:57:50.435Z,97199.88
2022-09-28T01:00:19.013Z,97196.69
2022-09-28T01:02:49.246Z,97190.44
2022-09-28T01:05:20.140Z,97181.53
2022-09-28T01:07:49.336Z,97170.16
2022-09-28T01:10:18.487Z,97158.34
2022-09-28T01:12:47.449Z,97143.63
2022-09-28T01:15:16.740Z,97146.81
2022-09-28T01:17:59.604Z,97154.22
2022-09-28T01:20:56.032Z,97149.06
2022-09-28T01:23:55.422Z,97136.28
2022-09-28T01:26:51.005Z,97139.38
2022-09-28T01:29:28.178Z,97134.38
2022-09-28T01:32:05.968Z,97131.56
2022-09-28T01:34:43.027Z,97130.47
2022-09-28T01:37:18.942Z,97131.72
2022-09-28T01:39:50.776Z,97128.53
2022-09-28T01:42:25.376Z,97124.19
2022-09-28T01:44:56.228Z,97119.47
2022-09-28T01:47:27.707Z,97116.00
2022-09-28T01:50:01.912Z,97118.38
2022-09-28T01:52:36.496Z,97109.63
2022-09-28T01:55:12.180Z,97102.69
2022-09-28T01:57:46.248Z,97105.88
2022-09-28T02:00:17.350Z,97091.31
2022-09-28T02:02:49.873Z,97100.91
2022-09-28T02:05:22.844Z,97100.31
2022-09-28T02:07:57.647Z,97098.63
2022-09-28T02:10:34.544Z,97099.06
2022-09-28T02:13:07.593Z,97093.78
2022-09-28T02:15:42.715Z,97090.72
2022-09-28T02:18:12.719Z,97089.75
2022-09-28T02:20:44.507Z,97088.78
2022-09-28T02:23:13.069Z,97086.44
2022-09-28T02:25:45.374Z,97087.41
2022-09-28T02:28:16.657Z,97079.09
2022-09-28T02:30:51.853Z,97088.25
2022-09-28T02:33:24.845Z,97078.94
2022-09-28T02:35:53.633Z,97089.59
2022-09-28T02:38:21.652Z,97089.38
2022-09-28T02:40:59.150Z,97084.75
2022-09-28T02:43:41.532Z,97082.41
2022-09-28T02:46:25.424Z,97087.78
2022-09-28T02:49:21.378Z,97095.84
2022-09-28T02:52:04.863Z,97091.69
2022-09-28T02:54:49.172Z,97086.28
2022-09-28T02:57:28.194Z,97087.38
2022-09-28T03:00:10.942Z,97094.03
2022-09-28T03:02:51.283Z,97086.84
2022-09-28T03:05:24.185Z,97085.13
2022-09-28T03:07:59.035Z,97080.31
2022-09-28T03:10:32.368Z,97083.22
2022-09-28T03:13:02.119Z,97080.00
2022-09-28T03:15:34.981Z,97080.31
2022-09-28T03:18:03.858Z,97079.50
2022-09-28T03:20:35.334Z,97081.66
2022-09-28T03:23:23.973Z,97080.00
2022-09-28T03:25:53.419Z,97082.63
2022-09-28T03:28:22.964Z,97086.94
2022-09-28T03:30:57.459Z,97088.19
2022-09-28T03:33:26.097Z,97092.25
2022-09-28T03:35:54.867Z,97087.69
2022-09-28T03:38:23.425Z,97084.06
2022-09-28T03:40:56.746Z,97086.84
2022-09-28T03:43:25.722Z,97084.22
2022-09-28T03:45:56.310Z,97093.81
2022-09-28T03:48:29.904Z,97094.31
2022-09-28T03:51:01.780Z,97086.44
2022-09-28T03:53:30.426Z,97085.19
2022-09-28T03:56:04.126Z,97083.66
2022-09-28T03:58:32.289Z,97081.19
2022-09-28T04:01:05.652Z,97071.03
2022-09-28T04:03:34.950Z,97076.03
2022-09-28T04:06:03.764Z,97067.00
2022-09-28T04:08:32.162Z,97069.78
2022-09-28T04:11:01.051Z,97074.38
2022-09-28T04:13:30.787Z,97076.44
2022-09-28T04:16:03.110Z,97074.53
2022-09-28T04:18:33.968Z,97073.41
2022-09-28T04:21:06.873Z,97074.06
2022-09-28T04:23:36.353Z,97077.69
2022-09-28T04:26:05.462Z,97072.94
2022-09-28T04:28:51.480Z,97071.88
2022-09-28T04:31:21.963Z,97074.91
2022-09-28T04:33:53.927Z,97071.03
2022-09-28T04:36:22.119Z,97075.59
2022-09-28T04:38:53.741Z,97072.84
2022-09-28T04:41:23.026Z,97073.09
2022-09-28T04:43:52.086Z,97070.19
2022-09-28T04:46:21.872Z,97078.47
2022-09-28T04:48:50.228Z,97074.75
2022-09-28T04:51:20.347Z,97081.00
2022-09-28T04:53:48.573Z,97071.97
2022-09-28T04:56:18.224Z,97076.44
2022-09-28T04:58:52.491Z,97067.13
2022-09-28T05:01:23.943Z,97079.63
2022-09-28T05:03:54.310Z,97084.47
2022-09-28T05:06:28.112Z,97083.50
2022-09-28T05:08:57.708Z,97084.59
2022-09-28T05:11:26.321Z,97088.97
2022-09-28T05:13:54.910Z,97089.13
2022-09-28T05:16:25.951Z,97091.34
2022-09-28T05:18:56.906Z,97100.06
2022-09-28T05:21:29.440Z,97100.03
2022-09-28T05:23:58.573Z,97098.97
2022-09-28T05:26:29.381Z,97093.88
2022-09-28T05:28:58.297Z,97106.13
2022-09-28T05:31:27.522Z,97101.59
2022-09-28T05:33:56.224Z,97113.00
2022-09-28T05:36:27.149Z,97114.22
2022-09-28T05:38:57.381Z,97116.88
2022-09-28T05:41:25.928Z,97125.63
2022-09-28T05:43:55.218Z,97118.16
2022-09-28T05:46:24.015Z,97121.13
2022-09-28T05:48:52.739Z,97117.91
2022-09-28T05:51:20.907Z,97126.50
2022-09-28T05:53:50.334Z,97124.84
2022-09-28T05:56:21.174Z,97121.06
2022-09-28T05:58:50.937Z,97118.28
2022-09-28T06:01:19.355Z,97121.00
2022-09-28T06:03:49.372Z,97122.53
2022-09-28T06:06:17.986Z,97123.59
2022-09-28T06:08:48.598Z,97125.00
2022-09-28T06:11:17.331Z,97127.19
2022-09-28T06:13:47.267Z,97124.03
2022-09-28T06:16:17.410Z,97135.34
2022-09-28T06:18:46.301Z,97128.13
2022-09-28T06:21:15.309Z,97135.47
2022-09-28T06:23:48.830Z,97140.47
2022-09-28T06:26:18.443Z,97136.16
2022-09-28T06:28:48.663Z,97136.59
2022-09-28T06:31:17.350Z,97141.16
2022-09-28T06:33:45.995Z,97142.03
2022-09-28T06:36:14.149Z,97146.09
2022-09-28T06:38:42.628Z,97146.53
2022-09-28T06:41:12.647Z,97154.50
2022-09-28T06:43:41.212Z,97150.41
2022-09-28T06:46:11.670Z,97150.31
2022-09-28T06:48:40.077Z,97152.63
2022-09-28T06:51:08.814Z,97158.06
2022-09-28T06:53:37.522Z,97152.78
2022-09-28T06:56:07.135Z,97152.88
2022-09-28T06:58:35.536Z,97160.13
2022-09-28T07:01:04.407Z,97160.56
2022-09-28T07:03:34.698Z,97165.41
2022-09-28T07:06:04.967Z,97167.38
2022-09-28T07:08:34.130Z,97159.31
2022-09-28T07:11:07.951Z,97163.50
2022-09-28T07:13:49.693Z,97167.84
2022-09-28T07:16:24.156Z,97173.81
2022-09-28T07:18:56.484Z,97168.09
2022-09-28T07:21:30.281Z,97167.44
2022-09-28T07:24:00.193Z,97172.78
2022-09-28T07:26:28.250Z,97175.47
2022-09-28T07:28:58.404Z,97178.75
2022-09-28T07:31:28.280Z,97171.88
2022-09-28T07:33:59.207Z,97187.91
2022-09-28T07:36:29.483Z,97184.66
2022-09-28T07:38:58.055Z,97188.31
2022-09-28T07:41:32.776Z,97204.03
2022-09-28T07:44:07.753Z,97205.72
2022-09-28T07:46:36.403Z,97207.97
2022-09-28T07:49:10.030Z,97207.50
2022-09-28T07:51:43.979Z,97205.84
2022-09-28T07:54:13.558Z,97213.88
2022-09-28T07:56:41.898Z,97218.34
2022-09-28T07:59:10.762Z,97225.78
2022-09-28T08:01:41.343Z,97223.13
2022-09-28T08:04:12.448Z,97228.94
2022-09-28T08:06:40.975Z,97232.84
2022-09-28T08:09:09.466Z,97232.78
2022-09-28T08:11:37.892Z,97235.16
2022-09-28T08:14:06.209Z,97234.31
2022-09-28T08:19:09.737Z,97236.50
2022-09-28T08:21:45.524Z,97243.88
2022-09-28T08:24:14.587Z,97238.69
2022-09-28T08:26:43.744Z,97247.31
2022-09-28T08:29:12.546Z,97243.69
2022-09-28T08:31:40.758Z,97249.22
2022-09-28T08:34:09.825Z,97248.00
2022-09-28T08:36:43.379Z,97244.91
2022-09-28T08:39:11.976Z,97251.88
2022-09-28T08:41:46.055Z,97251.59
2022-09-28T08:44:24.476Z,97255.66
2022-09-28T08:47:01.531Z,97249.50
2022-09-28T08:49:38.857Z,97249.66
2022-09-28T08:52:15.097Z,97254.38
2022-09-28T08:54:57.766Z,97247.28
2022-09-28T08:57:30.568Z,97257.16
2022-09-28T09:00:00.233Z,97252.28
2022-09-28T09:02:33.782Z,97252.13
2022-09-28T09:05:05.121Z,97244.63
2022-09-28T09:10:48.576Z,97263.97
2022-09-28T09:13:39.862Z,97263.16
2022-09-28T09:16:17.560Z,97262.47
2022-09-28T09:18:54.265Z,97263.44
2022-09-28T09:21:41.523Z,97267.31
2022-09-28T09:24:27.725Z,97268.41
2022-09-28T09:27:07.173Z,97262.59
2022-09-28T09:29:57.108Z,97259.97
2022-09-28T09:32:45.372Z,97269.53
2022-09-28T09:35:51.732Z,97258.16
2022-09-28T09:38:35.013Z,97262.59
2022-09-28T09:41:18.155Z,97266.59
2022-09-28T09:44:07.082Z,97260.06
2022-09-28T09:46:42.060Z,97264.63
2022-09-28T09:49:16.828Z,97258.13
2022-09-28T09:51:49.089Z,97257.44
2022-09-28T09:54:25.618Z,97258.69
2022-09-28T09:56:59.872Z,97257.97
2022-09-28T09:59:36.018Z,97254.34
2022-09-28T10:02:12.088Z,97258.97
2022-09-28T10:04:47.143Z,97269.69
2022-09-28T10:07:24.672Z,97264.72
2022-09-28T10:09:57.348Z,97273.88
2022-09-28T10:12:26.244Z,97274.00
2022-09-28T10:14:56.896Z,97274.16
2022-09-28T10:17:30.185Z,97284.59
2022-09-28T10:19:58.858Z,97281.22
2022-09-28T10:22:29.081Z,97284.72
2022-09-28T10:24:59.267Z,97286.94
2022-09-28T10:27:32.019Z,97284.41
2022-09-28T10:30:04.651Z,97300.44
2022-09-28T10:32:40.013Z,97287.66
2022-09-28T10:35:23.768Z,97283.91
2022-09-28T10:37:59.904Z,97285.41
2022-09-28T10:40:33.263Z,97290.84
2022-09-28T10:43:04.324Z,97292.66
2022-09-28T10:45:38.334Z,97294.47
2022-09-28T10:48:17.645Z,97292.78
2022-09-28T10:51:05.172Z,97293.31
2022-09-28T10:53:38.649Z,97289.31
2022-09-28T10:56:09.259Z,97292.28
2022-09-28T10:58:40.801Z,97285.94
2022-09-28T11:01:13.645Z,97276.38
2022-09-28T11:03:52.604Z,97279.28
2022-09-28T11:06:29.752Z,97275.06
2022-09-28T11:09:02.581Z,97274.22
2022-09-28T11:11:31.656Z,97277.53
2022-09-28T11:14:03.515Z,97268.75
2022-09-28T11:16:36.294Z,97269.31
2022-09-28T11:19:08.198Z,97277.13
2022-09-28T11:21:46.153Z,97279.06
2022-09-28T11:24:25.795Z,97272.63
2022-09-28T11:26:58.002Z,97262.63
2022-09-28T11:29:39.141Z,97273.22
2022-09-28T11:32:15.712Z,97276.56
2022-09-28T11:34:59.144Z,97264.75
2022-09-28T11:37:43.817Z,97269.72
2022-09-28T11:40:24.454Z,97277.75
2022-09-28T11:45:54.058Z,97275.72
2022-09-28T11:48:29.006Z,97272.06
2022-09-28T11:51:04.067Z,97276.91
2022-09-28T11:53:38.679Z,97264.69
2022-09-28T11:56:15.779Z,97271.84
2022-09-28T11:58:49.631Z,97272.22
2022-09-28T12:01:27.703Z,97275.13
2022-09-28T12:04:02.708Z,97267.84
2022-09-28T12:06:38.431Z,97270.00
2022-09-28T12:09:18.426Z,97269.78
2022-09-28T12:11:50.960Z,97270.56
2022-09-28T12:14:24.808Z,97261.94
2022-09-28T12:17:06.234Z,97263.25
2022-09-28T12:19:44.710Z,97254.63
2022-09-28T12:22:20.197Z,97262.06
2022-09-28T12:24:52.981Z,97255.41
2022-09-28T12:27:29.283Z,97252.88
2022-09-28T12:30:04.451Z,97262.28
2022-09-28T12:32:39.811Z,97262.59
2022-09-28T12:35:16.978Z,97270.97
2022-09-28T12:38:20.730Z,97274.69
2022-09-28T12:40:58.649Z,97275.59
2022-09-28T12:43:41.054Z,97280.38
2022-09-28T12:46:39.212Z,97280.00
2022-09-28T12:50:20.121Z,97282.41
2022-09-28T12:52:29.153Z,97273.88
2022-09-28T12:55:25.703Z,97268.19
2022-09-28T12:58:04.330Z,97272.91
2022-09-28T13:00:45.371Z,97276.66
2022-09-28T13:03:49.789Z,97268.13
2022-09-28T13:06:35.979Z,97276.00
2022-09-28T13:09:17.016Z,97268.53
2022-09-28T13:12:00.959Z,97271.19
2022-09-28T13:15:13.717Z,97262.72
2022-09-28T13:17:50.308Z,97257.09
2022-09-28T13:20:39.331Z,97259.41
2022-09-28T13:23:17.237Z,97262.06
2022-09-28T13:25:54.774Z,97262.69
2022-09-28T13:28:27.147Z,97256.81
2022-09-28T13:30:59.905Z,97254.97
2022-09-28T13:33:36.659Z,97252.47
2022-09-28T13:36:07.504Z,97248.81
2022-09-28T13:38:53.837Z,97256.03
2022-09-28T13:41:29.258Z,97242.88
2022-09-28T13:44:25.942Z,97259.19
2022-09-28T13:47:20.924Z,97252.75
2022-09-28T13:50:03.954Z,97255.84
2022-09-28T13:52:45.750Z,97256.75
2022-09-28T13:55:27.838Z,97255.81
2022-09-28T13:58:04.630Z,97258.28
2022-09-28T14:00:58.019Z,97261.97
2022-09-28T14:03:29.158Z,97262.94
2022-09-28T14:06:26.751Z,97269.00
2022-09-28T14:09:40.961Z,97271.09
2022-09-28T14:12:47.021Z,97270.91
2022-09-28T14:16:00.236Z,97262.34
2022-09-28T14:18:34.362Z,97270.03
2022-09-28T14:21:21.550Z,97275.44
2022-09-28T14:24:20.998Z,97277.91
2022-09-28T14:27:22.125Z,97276.34
2022-09-28T14:29:55.839Z,97274.41
2022-09-28T14:32:26.273Z,97269.16
2022-09-28T14:35:05.138Z,97278.25
2022-09-28T14:37:53.889Z,97271.31
2022-09-28T14:40:47.125Z,97265.72
2022-09-28T14:43:38.049Z,97268.38
2022-09-28T14:46:49.723Z,97264.41
2022-09-28T14:50:01.085Z,97272.69
2022-09-28T14:52:45.953Z,97276.84
2022-09-28T14:55:19.585Z,97279.16
2022-09-28T14:57:54.357Z,97286.63
2022-09-28T15:00:28.280Z,97284.47
2022-09-28T15:03:02.619Z,97287.78
2022-09-28T15:05:38.020Z,97282.75
2022-09-28T15:08:08.363Z,97281.28
2022-09-28T15:10:40.685Z,97283.81
2022-09-28T15:13:21.746Z,97286.03
2022-09-28T15:15:53.335Z,97286.22
2022-09-28T15:19:02.957Z,97297.09
2022-09-28T15:21:38.619Z,97296.69
2022-09-28T15:24:40.390Z,97294.94
2022-09-28T15:27:19.108Z,97286.75
2022-09-28T15:29:58.405Z,97293.19
2022-09-28T15:32:27.670Z,97298.19
2022-09-28T15:34:57.380Z,97293.56
2022-09-28T15:37:28.826Z,97292.66
2022-09-28T15:40:16.927Z,97305.41
2022-09-28T15:42:51.085Z,97311.72
2022-09-28T15:45:27.027Z,97310.97
2022-09-28T15:48:20.783Z,97316.56
2022-09-28T15:51:11.139Z,97322.19
2022-09-28T15:54:05.921Z,97329.94
2022-09-28T15:56:53.145Z,97327.19
2022-09-28T15:59:30.486Z,97324.50
2022-09-28T16:02:13.466Z,97323.88
2022-09-28T16:04:50.574Z,97329.31
2022-09-28T16:07:21.437Z,97326.69
2022-09-28T16:09:56.856Z,97327.41
2022-09-28T16:12:32.057Z,97326.03
2022-09-28T16:15:05.771Z,97333.94
2022-09-28T16:17:38.237Z,97327.59
2022-09-28T16:20:22.657Z,97336.06
2022-09-28T16:22:51.406Z,97333.19
2022-09-28T16:25:24.850Z,97335.19
2022-09-28T16:27:56.807Z,97335.34
2022-09-28T16:30:27.585Z,97342.78
2022-09-28T16:33:00.473Z,97336.78
2022-09-28T16:35:32.530Z,97337.84
2022-09-28T16:38:10.810Z,97347.75
2022-09-28T16:40:43.456Z,97344.63
2022-09-28T16:43:20.884Z,97336.00
2022-09-28T16:45:51.207Z,97341.06
2022-09-28T16:48:20.755Z,97348.16
2022-09-28T16:50:49.092Z,97352.22
2022-09-28T16:53:36.650Z,97344.50
2022-09-28T16:56:06.299Z,97352.19
2022-09-28T16:58:39.249Z,97350.38
2022-09-28T17:01:08.982Z,97361.19
2022-09-28T17:03:37.444Z,97358.75
2022-09-28T17:06:38.964Z,97368.72
2022-09-28T17:09:08.424Z,97371.19
2022-09-28T17:11:36.627Z,97376.03
2022-09-28T17:14:07.324Z,97371.88
2022-09-28T17:19:29.029Z,97377.13
2022-09-28T17:21:58.997Z,97375.47
2022-09-28T17:24:27.867Z,97383.94
2022-09-28T17:26:57.124Z,97377.63
2022-09-28T17:29:28.023Z,97390.22
2022-09-28T17:31:58.219Z,97391.28
2022-09-28T17:34:26.642Z,97393.69
2022-09-28T17:36:57.081Z,97396.75
2022-09-28T17:39:26.312Z,97400.53
2022-09-28T17:41:54.714Z,97402.03
2022-09-28T17:44:22.987Z,97403.56
2022-09-28T17:46:54.197Z,97413.06
2022-09-28T17:49:22.656Z,97406.38
2022-09-28T17:51:53.052Z,97416.53
2022-09-28T17:54:26.844Z,97425.84
2022-09-28T17:56:55.270Z,97427.94
2022-09-28T17:59:30.896Z,97421.47
2022-09-28T18:02:02.506Z,97414.75
2022-09-28T18:04:50.609Z,97424.28
2022-09-28T18:07:20.002Z,97419.59
2022-09-28T18:09:48.751Z,97418.88
2022-09-28T18:12:17.148Z,97427.78
2022-09-28T18:14:45.677Z,97429.06
2022-09-28T18:17:15.595Z,97432.38
2022-09-28T18:19:44.324Z,97425.03
2022-09-28T18:22:12.686Z,97424.31
2022-09-28T18:24:42.348Z,97421.69
2022-09-28T18:27:10.960Z,97421.81
2022-09-28T18:29:39.818Z,97419.59
2022-09-28T18:32:08.399Z,97417.09
2022-09-28T18:34:40.447Z,97419.69
2022-09-28T18:37:10.769Z,97424.31
2022-09-28T18:39:42.296Z,97425.88
2022-09-28T18:42:12.073Z,97431.06
2022-09-28T18:44:41.612Z,97437.47
2022-09-28T18:47:11.321Z,97440.69
2022-09-28T18:49:46.853Z,97450.03
2022-09-28T18:52:15.268Z,97444.03
2022-09-28T18:54:44.826Z,97450.03
2022-09-28T18:57:17.881Z,97455.75
2022-09-28T18:59:48.187Z,97446.28
2022-09-28T19:02:16.804Z,97456.59
2022-09-28T19:04:46.690Z,97453.84
2022-09-28T19:07:15.801Z,97448.00
2022-09-28T19:09:44.445Z,97456.34
2022-09-28T19:12:13.756Z,97454.97
2022-09-28T19:14:42.230Z,97453.97
2022-09-28T19:17:12.798Z,97461.38
2022-09-28T19:19:42.907Z,97455.25
2022-09-28T19:22:13.598Z,97460.97
2022-09-28T19:24:43.134Z,97452.88
2022-09-28T19:27:13.348Z,97456.66
2022-09-28T19:29:41.791Z,97457.63
2022-09-28T19:32:12.644Z,97464.31
2022-09-28T19:34:44.846Z,97468.50
2022-09-28T19:37:14.961Z,97467.25
2022-09-28T19:39:43.670Z,97464.16
2022-09-28T19:42:12.169Z,97472.13
2022-09-28T19:44:42.066Z,97472.84
2022-09-28T19:47:12.602Z,97464.63
2022-09-28T19:49:43.180Z,97473.69
2022-09-28T19:52:17.430Z,97482.19
2022-09-28T19:54:54.531Z,97481.19
2022-09-28T19:57:24.990Z,97487.31
2022-09-28T19:59:59.304Z,97492.63
2022-09-28T20:02:30.545Z,97497.38
2022-09-28T20:04:59.126Z,97511.44
2022-09-28T20:07:29.625Z,97501.69
2022-09-28T20:09:59.428Z,97508.25
2022-09-28T20:12:28.108Z,97508.25
2022-09-28T20:14:56.860Z,97508.38
2022-09-28T20:17:25.491Z,97510.19
2022-09-28T20:19:53.876Z,97515.75
2022-09-28T20:22:22.250Z,97519.53
2022-09-28T20:24:54.695Z,97521.19
2022-09-28T20:27:26.666Z,97521.06
2022-09-28T20:29:55.174Z,97523.56
2022-09-28T20:32:23.771Z,97527.88
2022-09-28T20:34:53.237Z,97526.66
2022-09-28T20:37:21.685Z,97527.19
2022-09-28T20:39:50.484Z,97519.38
2022-09-28T20:42:19.411Z,97524.41
2022-09-28T20:44:50.107Z,97532.63
2022-09-28T20:47:18.582Z,97534.00
2022-09-28T20:49:46.739Z,97532.09
2022-09-28T20:52:17.122Z,97536.09
2022-09-28T20:54:45.270Z,97524.13
2022-09-28T20:57:21.548Z,97528.28
2022-09-28T20:59:54.675Z,97543.03
2022-09-28T21:02:23.264Z,97534.94
2022-09-28T21:04:51.735Z,97544.13
2022-09-28T21:07:20.622Z,97545.47
2022-09-28T21:09:49.108Z,97532.59
2022-09-28T21:12:18.355Z,97532.25
2022-09-28T21:14:46.709Z,97531.38
2022-09-28T21:17:19.347Z,97520.41
2022-09-28T21:19:49.902Z,97525.03
2022-09-28T21:22:19.095Z,97519.59
2022-09-28T21:24:47.673Z,97522.94
2022-09-28T21:27:16.041Z,97523.91
2022-09-28T21:29:45.752Z,97523.22
2022-09-28T21:32:16.196Z,97528.69
2022-09-28T21:34:44.736Z,97525.41
2022-09-28T21:37:13.549Z,97533.91
2022-09-28T21:39:42.292Z,97534.66
2022-09-28T21:42:10.801Z,97538.16
2022-09-28T21:44:41.635Z,97536.47
2022-09-28T21:47:10.692Z,97528.41
2022-09-28T21:49:41.327Z,97527.56
2022-09-28T21:52:09.877Z,97523.31
2022-09-28T21:54:38.388Z,97527.75
2022-09-28T21:57:07.169Z,97525.59
2022-09-28T21:59:36.786Z,97522.16
2022-09-28T22:02:06.756Z,97520.16
2022-09-28T22:04:35.136Z,97529.75
2022-09-28T22:07:05.008Z,97525.84
2022-09-28T22:09:35.151Z,97519.72
2022-09-28T22:12:03.742Z,97516.91
2022-09-28T22:14:32.278Z,97528.28
2022-09-28T22:17:00.639Z,97526.50
2022-09-28T22:19:30.433Z,97536.06
2022-09-28T22:21:59.414Z,97531.44
2022-09-28T22:24:29.480Z,97539.75
2022-09-28T22:26:58.148Z,97542.34
2022-09-28T22:29:28.134Z,97543.59
2022-09-28T22:32:02.317Z,97544.16
2022-09-28T22:34:32.428Z,97547.47
2022-09-28T22:37:02.218Z,97558.59
2022-09-28T22:39:36.690Z,97555.56
2022-09-28T22:42:06.546Z,97560.50
2022-09-28T22:44:35.811Z,97558.47
2022-09-28T22:47:06.079Z,97560.63
2022-09-28T22:49:34.586Z,97565.03
2022-09-28T22:52:03.306Z,97566.50
2022-09-28T22:54:33.648Z,97564.63
2022-09-28T22:57:02.418Z,97573.25
2022-09-28T22:59:30.797Z,97568.19
2022-09-28T23:01:59.190Z,97568.63
2022-09-28T23:04:27.826Z,97562.44
2022-09-28T23:06:55.960Z,97570.97
2022-09-28T23:09:24.496Z,97566.44
2022-09-28T23:11:56.014Z,97572.16
2022-09-28T23:14:24.449Z,97569.22
2022-09-28T23:16:53.128Z,97570.31
2022-09-28T23:19:21.502Z,97570.31
2022-09-28T23:21:50.442Z,97565.78
2022-09-28T23:24:19.123Z,97568.56
2022-09-28T23:26:47.537Z,97565.00
2022-09-28T23:29:21.429Z,97570.28
2022-09-28T23:31:49.641Z,97564.69
2022-09-28T23:34:18.280Z,97566.38
2022-09-28T23:36:47.012Z,97573.91
2022-09-28T23:39:15.476Z,97572.84
2022-09-28T23:41:43.895Z,97564.72
2022-09-28T23:44:12.010Z,97564.31
2022-09-28T23:46:42.078Z,97565.78
2022-09-28T23:49:10.569Z,97561.84
2022-09-28T23:51:39.566Z,97564.41
2022-09-28T23:54:08.451Z,97563.00
2022-09-28T23:56:36.980Z,97563.31
2022-09-28T23:59:05.443Z,97560.63
